createdAt,value
2022-08-02T00:01:44.311Z,98658.00
2022-08-02T00:04:32.461Z,98656.00
2022-08-02T00:07:20.525Z,98657.00
2022-08-02T00:10:10.990Z,98656.00
2022-08-02T00:12:58.965Z,98660.00
2022-08-02T00:15:46.475Z,98661.00
2022-08-02T00:18:34.347Z,98659.00
2022-08-02T00:21:21.927Z,98656.00
2022-08-02T00:24:29.900Z,98651.00
2022-08-02T00:27:17.297Z,98656.00
2022-08-02T00:30:05.690Z,98650.00
2022-08-02T00:32:53.246Z,98647.00
2022-08-02T00:35:40.851Z,98633.00
2022-08-02T00:38:28.435Z,98626.00
2022-08-02T00:41:19.359Z,98625.00
2022-08-02T00:44:06.795Z,98622.00
2022-08-02T00:46:54.235Z,98627.00
2022-08-02T00:49:41.748Z,98619.00
2022-08-02T00:52:29.267Z,98623.00
2022-08-02T00:55:17.381Z,98634.00
2022-08-02T00:58:06.463Z,98634.00
2022-08-02T01:00:56.580Z,98639.00
2022-08-02T01:03:45.041Z,98642.00
2022-08-02T01:06:33.370Z,98649.00
2022-08-02T01:09:20.844Z,98647.00
2022-08-02T01:12:09.303Z,98649.00
2022-08-02T01:15:02.696Z,98647.00
2022-08-02T01:18:01.200Z,98652.00
2022-08-02T01:21:31.790Z,98648.00
2022-08-02T01:24:29.924Z,98649.00
2022-08-02T01:28:07.946Z,98646.00
2022-08-02T01:31:16.895Z,98657.00
2022-08-02T01:34:29.739Z,98657.00
2022-08-02T01:37:41.126Z,98662.00
2022-08-02T01:40:32.503Z,98670.00
2022-08-02T01:43:22.819Z,98666.00
2022-08-02T01:46:13.925Z,98669.00
2022-08-02T01:49:09.387Z,98662.00
2022-08-02T01:52:18.869Z,98663.00
2022-08-02T01:55:19.329Z,98664.00
2022-08-02T01:58:09.873Z,98671.00
2022-08-02T02:00:59.883Z,98669.00
2022-08-02T02:03:50.166Z,98665.00
2022-08-02T02:06:38.675Z,98665.00
2022-08-02T02:09:30.676Z,98662.00
2022-08-02T02:12:20.037Z,98665.00
2022-08-02T02:15:12.369Z,98668.00
2022-08-02T02:18:11.243Z,98664.00
2022-08-02T02:21:00.794Z,98670.00
2022-08-02T02:23:48.569Z,98678.00
2022-08-02T02:26:42.962Z,98687.00
2022-08-02T02:29:49.046Z,98695.00
2022-08-02T02:32:37.225Z,98702.00
2022-08-02T02:35:33.065Z,98698.00
2022-08-02T02:38:22.674Z,98703.00
2022-08-02T02:41:11.210Z,98694.00
2022-08-02T02:44:03.450Z,98697.00
2022-08-02T02:46:54.844Z,98705.00
2022-08-02T02:49:46.139Z,98712.00
2022-08-02T02:52:35.441Z,98706.00
2022-08-02T02:55:26.820Z,98699.00
2022-08-02T02:58:14.719Z,98687.00
2022-08-02T03:01:20.934Z,98688.00
2022-08-02T03:04:56.030Z,98688.00
2022-08-02T03:07:39.770Z,98695.00
2022-08-02T03:10:28.209Z,98698.00
2022-08-02T03:13:17.490Z,98697.00
2022-08-02T03:16:06.279Z,98697.00
2022-08-02T03:18:55.105Z,98705.00
2022-08-02T03:21:44.790Z,98695.00
2022-08-02T03:24:32.740Z,98700.00
2022-08-02T03:27:20.181Z,98702.00
2022-08-02T03:30:11.765Z,98722.00
2022-08-02T03:32:59.473Z,98727.00
2022-08-02T03:35:50.801Z,98733.00
2022-08-02T03:38:39.304Z,98725.00
2022-08-02T03:41:52.689Z,98719.00
2022-08-02T03:44:40.886Z,98721.00
2022-08-02T03:47:29.850Z,98716.00
2022-08-02T03:50:18.828Z,98716.00
2022-08-02T03:53:07.760Z,98713.00
2022-08-02T03:56:08.026Z,98715.00
2022-08-02T03:59:14.614Z,98723.00
2022-08-02T04:02:03.383Z,98723.00
2022-08-02T04:04:51.097Z,98726.00
2022-08-02T04:08:32.822Z,98733.00
2022-08-02T04:11:05.134Z,98744.00
2022-08-02T04:13:56.504Z,98745.00
2022-08-02T04:16:52.019Z,98754.00
2022-08-02T04:19:45.832Z,98749.00
2022-08-02T04:22:53.181Z,98748.00
2022-08-02T04:25:41.741Z,98746.00
2022-08-02T04:28:31.642Z,98755.00
2022-08-02T04:31:20.715Z,98760.00
2022-08-02T04:34:08.359Z,98761.00
2022-08-02T04:36:56.416Z,98757.00
2022-08-02T04:39:44.650Z,98761.00
2022-08-02T04:42:32.181Z,98762.00
2022-08-02T04:45:21.320Z,98766.00
2022-08-02T04:48:08.815Z,98773.00
2022-08-02T04:50:56.339Z,98778.00
2022-08-02T04:53:43.760Z,98784.00
2022-08-02T04:56:31.375Z,98778.00
2022-08-02T04:59:18.860Z,98776.00
2022-08-02T05:02:06.314Z,98772.00
2022-08-02T05:04:53.840Z,98783.00
2022-08-02T05:07:41.432Z,98785.00
2022-08-02T05:10:28.965Z,98791.00
2022-08-02T05:13:16.401Z,98793.00
2022-08-02T05:16:05.180Z,98797.00
2022-08-02T05:18:52.985Z,98797.00
2022-08-02T05:21:40.449Z,98800.00
2022-08-02T05:24:27.921Z,98806.00
2022-08-02T05:27:16.895Z,98808.00
2022-08-02T05:30:09.948Z,98811.00
2022-08-02T05:32:57.431Z,98819.00
2022-08-02T05:35:45.041Z,98814.00
2022-08-02T05:38:32.551Z,98816.00
2022-08-02T05:41:24.586Z,98812.00
2022-08-02T05:44:12.641Z,98827.00
2022-08-02T05:47:00.121Z,98824.00
2022-08-02T05:49:47.556Z,98826.00
2022-08-02T05:53:13.449Z,98824.00
2022-08-02T05:56:24.665Z,98831.00
2022-08-02T05:59:33.762Z,98830.00
2022-08-02T06:02:36.465Z,98829.00
2022-08-02T06:05:29.276Z,98818.00
2022-08-02T06:08:18.205Z,98835.00
2022-08-02T06:11:10.730Z,98830.00
2022-08-02T06:13:58.475Z,98839.00
2022-08-02T06:16:46.683Z,98841.00
2022-08-02T06:19:52.326Z,98847.00
2022-08-02T06:22:45.516Z,98853.00
2022-08-02T06:25:48.017Z,98854.00
2022-08-02T06:28:41.463Z,98860.00
2022-08-02T06:31:29.367Z,98862.00
2022-08-02T06:34:16.869Z,98863.00
2022-08-02T06:37:31.571Z,98848.00
2022-08-02T06:40:46.252Z,98852.00
2022-08-02T06:44:26.118Z,98843.00
2022-08-02T06:47:13.201Z,98850.00
2022-08-02T06:50:01.170Z,98846.00
2022-08-02T06:52:48.660Z,98847.00
2022-08-02T06:55:43.414Z,98856.00
2022-08-02T06:58:31.914Z,98850.00
2022-08-02T07:01:20.113Z,98849.00
2022-08-02T07:04:07.737Z,98846.00
2022-08-02T07:06:57.035Z,98848.00
2022-08-02T07:09:56.951Z,98839.00
2022-08-02T07:12:47.976Z,98848.00
2022-08-02T07:15:35.775Z,98841.00
2022-08-02T07:18:24.986Z,98836.00
2022-08-02T07:21:12.567Z,98840.00
2022-08-02T07:24:00.101Z,98838.00
2022-08-02T07:27:09.862Z,98834.00
2022-08-02T07:29:56.795Z,98840.00
2022-08-02T07:32:44.216Z,98835.00
2022-08-02T07:35:32.086Z,98831.00
2022-08-02T07:38:24.813Z,98833.00
2022-08-02T07:41:13.295Z,98833.00
2022-08-02T07:44:00.740Z,98828.00
2022-08-02T07:46:48.486Z,98832.00
2022-08-02T07:49:36.128Z,98824.00
2022-08-02T07:52:23.616Z,98828.00
2022-08-02T07:55:13.180Z,98824.00
2022-08-02T07:58:00.641Z,98829.00
2022-08-02T08:00:48.206Z,98822.00
2022-08-02T08:03:35.718Z,98832.00
2022-08-02T08:06:28.989Z,98831.00
2022-08-02T08:09:16.688Z,98830.00
2022-08-02T08:12:04.702Z,98836.00
2022-08-02T08:14:52.150Z,98824.00
2022-08-02T08:17:39.623Z,98832.00
2022-08-02T08:20:27.146Z,98829.00
2022-08-02T08:23:14.626Z,98826.00
2022-08-02T08:26:02.700Z,98834.00
2022-08-02T08:28:50.229Z,98837.00
2022-08-02T08:31:38.104Z,98839.00
2022-08-02T08:34:27.240Z,98843.00
2022-08-02T08:37:16.888Z,98839.00
2022-08-02T08:40:08.123Z,98837.00
2022-08-02T08:42:55.755Z,98835.00
2022-08-02T08:45:55.775Z,98836.00
2022-08-02T08:48:50.205Z,98837.00
2022-08-02T08:51:43.581Z,98835.00
2022-08-02T08:54:33.011Z,98840.00
2022-08-02T08:57:21.522Z,98841.00
2022-08-02T09:00:16.648Z,98848.00
2022-08-02T09:03:06.805Z,98841.00
2022-08-02T09:05:58.735Z,98843.00
2022-08-02T09:08:46.350Z,98834.00
2022-08-02T09:11:33.921Z,98841.00
2022-08-02T09:14:29.849Z,98839.00
2022-08-02T09:17:18.338Z,98846.00
2022-08-02T09:20:09.960Z,98839.00
2022-08-02T09:23:12.100Z,98848.00
2022-08-02T09:26:07.135Z,98843.00
2022-08-02T09:29:02.641Z,98844.00
2022-08-02T09:31:51.703Z,98850.00
2022-08-02T09:34:57.006Z,98853.00
2022-08-02T09:37:48.377Z,98856.00
2022-08-02T09:40:39.815Z,98853.00
2022-08-02T09:43:52.009Z,98852.00
2022-08-02T09:46:51.128Z,98859.00
2022-08-02T09:49:52.478Z,98857.00
2022-08-02T09:52:44.195Z,98849.00
2022-08-02T09:55:32.226Z,98855.00
2022-08-02T09:58:21.114Z,98856.00
2022-08-02T10:01:08.993Z,98853.00
2022-08-02T10:04:06.861Z,98854.00
2022-08-02T10:06:54.915Z,98854.00
2022-08-02T10:09:46.494Z,98847.00
2022-08-02T10:12:37.541Z,98847.00
2022-08-02T10:15:27.486Z,98843.00
2022-08-02T10:18:37.163Z,98844.00
2022-08-02T10:21:52.964Z,98841.00
2022-08-02T10:24:48.361Z,98841.00
2022-08-02T10:28:04.228Z,98836.00
2022-08-02T10:30:49.809Z,98839.00
2022-08-02T10:33:39.929Z,98832.00
2022-08-02T10:36:33.825Z,98832.00
2022-08-02T10:39:21.349Z,98826.00
2022-08-02T10:42:10.142Z,98828.00
2022-08-02T10:45:15.744Z,98827.00
2022-08-02T10:48:09.752Z,98818.00
2022-08-02T10:50:57.353Z,98815.00
2022-08-02T10:54:04.760Z,98803.00
2022-08-02T10:56:55.926Z,98803.00
2022-08-02T10:59:44.271Z,98805.00
2022-08-02T11:02:37.944Z,98801.00
2022-08-02T11:05:43.503Z,98798.00
2022-08-02T11:08:31.520Z,98795.00
2022-08-02T11:11:20.304Z,98795.00
2022-08-02T11:14:28.484Z,98794.00
2022-08-02T11:17:19.072Z,98788.00
2022-08-02T11:20:17.033Z,98791.00
2022-08-02T11:23:44.698Z,98796.00
2022-08-02T11:26:33.332Z,98782.00
2022-08-02T11:29:21.235Z,98799.00
2022-08-02T11:32:30.830Z,98794.00
2022-08-02T11:35:19.953Z,98786.00
2022-08-02T11:38:21.759Z,98787.00
2022-08-02T11:41:10.480Z,98782.00
2022-08-02T11:43:58.124Z,98782.00
2022-08-02T11:46:53.499Z,98776.00
2022-08-02T11:49:41.279Z,98785.00
2022-08-02T11:52:35.104Z,98770.00
2022-08-02T11:55:32.210Z,98777.00
2022-08-02T11:58:19.609Z,98766.00
2022-08-02T12:01:08.489Z,98764.00
2022-08-02T12:04:00.867Z,98765.00
2022-08-02T12:06:57.760Z,98771.00
2022-08-02T12:09:45.365Z,98773.00
2022-08-02T12:12:33.484Z,98770.00
2022-08-02T12:15:44.926Z,98769.00
2022-08-02T12:18:50.971Z,98762.00
2022-08-02T12:21:38.498Z,98767.00
2022-08-02T12:24:29.669Z,98768.00
2022-08-02T12:27:38.598Z,98765.00
2022-08-02T12:30:27.867Z,98758.00
2022-08-02T12:33:15.465Z,98753.00
2022-08-02T12:36:03.279Z,98761.00
2022-08-02T12:39:00.790Z,98762.00
2022-08-02T12:41:58.379Z,98754.00
2022-08-02T12:45:02.422Z,98758.00
2022-08-02T12:47:54.885Z,98751.00
2022-08-02T12:50:42.477Z,98749.00
2022-08-02T12:53:34.419Z,98747.00
2022-08-02T12:56:34.084Z,98749.00
2022-08-02T12:59:39.785Z,98739.00
2022-08-02T13:02:27.412Z,98748.00
2022-08-02T13:05:14.991Z,98747.00
2022-08-02T13:08:05.399Z,98743.00
2022-08-02T13:10:52.900Z,98733.00
2022-08-02T13:13:40.626Z,98737.00
2022-08-02T13:16:30.721Z,98739.00
2022-08-02T13:19:19.051Z,98729.00
2022-08-02T13:22:08.364Z,98725.00
2022-08-02T13:24:57.946Z,98728.00
2022-08-02T13:27:45.453Z,98718.00
2022-08-02T13:30:32.978Z,98715.00
2022-08-02T13:33:20.769Z,98710.00
2022-08-02T13:36:08.991Z,98700.00
2022-08-02T13:38:56.829Z,98704.00
2022-08-02T13:41:44.249Z,98703.00
2022-08-02T13:44:31.735Z,98698.00
2022-08-02T13:47:36.446Z,98699.00
2022-08-02T13:50:26.992Z,98695.00
2022-08-02T13:53:16.284Z,98699.00
2022-08-02T13:56:04.319Z,98698.00
2022-08-02T13:58:52.069Z,98699.00
2022-08-02T14:01:39.863Z,98705.00
2022-08-02T14:04:29.388Z,98693.00
2022-08-02T14:07:17.246Z,98690.00
2022-08-02T14:10:05.405Z,98694.00
2022-08-02T14:12:56.746Z,98695.00
2022-08-02T14:15:44.891Z,98685.00
2022-08-02T14:18:32.521Z,98691.00
2022-08-02T14:21:20.102Z,98690.00
2022-08-02T14:24:07.867Z,98694.00
2022-08-02T14:26:55.384Z,98688.00
2022-08-02T14:29:42.866Z,98685.00
2022-08-02T14:32:32.738Z,98686.00
2022-08-02T14:35:20.399Z,98690.00
2022-08-02T14:38:08.171Z,98688.00
2022-08-02T14:40:55.704Z,98691.00
2022-08-02T14:44:01.957Z,98679.00
2022-08-02T14:46:51.529Z,98680.00
2022-08-02T14:49:42.344Z,98673.00
2022-08-02T14:52:31.674Z,98669.00
2022-08-02T14:55:19.454Z,98672.00
2022-08-02T14:58:06.945Z,98661.00
2022-08-02T15:00:54.530Z,98664.00
2022-08-02T15:03:43.761Z,98658.00
2022-08-02T15:06:33.127Z,98656.00
2022-08-02T15:09:21.541Z,98655.00
2022-08-02T15:12:11.644Z,98650.00
2022-08-02T15:15:00.314Z,98653.00
2022-08-02T15:17:47.750Z,98656.00
2022-08-02T15:20:35.272Z,98649.00
2022-08-02T15:23:24.900Z,98653.00
2022-08-02T15:26:22.540Z,98661.00
2022-08-02T15:29:11.655Z,98656.00
2022-08-02T15:31:59.169Z,98656.00
2022-08-02T15:34:48.010Z,98654.00
2022-08-02T15:37:40.965Z,98657.00
2022-08-02T15:40:29.077Z,98658.00
2022-08-02T15:43:16.568Z,98653.00
2022-08-02T15:46:04.195Z,98658.00
2022-08-02T15:48:51.788Z,98656.00
2022-08-02T15:51:39.354Z,98657.00
2022-08-02T15:54:26.809Z,98656.00
2022-08-02T15:57:14.235Z,98656.00
2022-08-02T16:00:02.026Z,98656.00
2022-08-02T16:02:49.581Z,98651.00
2022-08-02T16:05:37.128Z,98659.00
2022-08-02T16:08:24.560Z,98661.00
2022-08-02T16:11:12.144Z,98655.00
2022-08-02T16:13:59.618Z,98655.00
2022-08-02T16:16:47.205Z,98660.00
2022-08-02T16:19:45.977Z,98656.00
2022-08-02T16:22:35.619Z,98656.00
2022-08-02T16:25:23.020Z,98659.00
2022-08-02T16:28:10.491Z,98663.00
2022-08-02T16:31:10.362Z,98660.00
2022-08-02T16:33:58.980Z,98656.00
2022-08-02T16:36:46.686Z,98652.00
2022-08-02T16:39:35.969Z,98653.00
2022-08-02T16:42:25.597Z,98654.00
2022-08-02T16:45:14.047Z,98643.00
2022-08-02T16:48:05.306Z,98648.00
2022-08-02T16:50:53.885Z,98645.00
2022-08-02T16:53:59.876Z,98643.00
2022-08-02T16:56:48.530Z,98646.00
2022-08-02T17:02:44.294Z,98634.00
2022-08-02T17:05:38.068Z,98635.00
2022-08-02T17:08:54.138Z,98642.00
2022-08-02T17:11:45.540Z,98640.00
2022-08-02T17:14:54.517Z,98648.00
2022-08-02T17:17:43.345Z,98644.00
2022-08-02T17:20:31.590Z,98648.00
2022-08-02T17:23:19.039Z,98655.00
2022-08-02T17:26:06.620Z,98660.00
2022-08-02T17:29:16.042Z,98656.00
2022-08-02T17:35:10.560Z,98663.00
2022-08-02T17:38:00.034Z,98664.00
2022-08-02T17:40:47.935Z,98666.00
2022-08-02T17:43:39.529Z,98661.00
2022-08-02T17:46:28.497Z,98659.00
2022-08-02T17:49:25.809Z,98659.00
2022-08-02T17:52:48.320Z,98659.00
2022-08-02T17:55:21.239Z,98660.00
2022-08-02T17:58:12.541Z,98665.00
2022-08-02T18:01:00.345Z,98670.00
2022-08-02T18:03:50.255Z,98661.00
2022-08-02T18:06:39.422Z,98665.00
2022-08-02T18:09:29.214Z,98668.00
2022-08-02T18:12:18.458Z,98662.00
2022-08-02T18:15:14.282Z,98661.00
2022-08-02T18:18:14.864Z,98665.00
2022-08-02T18:21:16.182Z,98667.00
2022-08-02T18:24:10.445Z,98672.00
2022-08-02T18:26:58.725Z,98665.00
2022-08-02T18:29:46.269Z,98669.00
2022-08-02T18:33:57.477Z,98664.00
2022-08-02T18:35:43.780Z,98674.00
2022-08-02T18:38:31.534Z,98667.00
2022-08-02T18:41:19.120Z,98665.00
2022-08-02T18:44:10.764Z,98659.00
2022-08-02T18:47:03.273Z,98665.00
2022-08-02T18:49:55.850Z,98671.00
2022-08-02T18:52:44.675Z,98668.00
2022-08-02T18:56:00.012Z,98667.00
2022-08-02T18:58:42.482Z,98670.00
2022-08-02T19:01:34.375Z,98670.00
2022-08-02T19:04:27.872Z,98677.00
2022-08-02T19:07:15.973Z,98672.00
2022-08-02T19:10:10.684Z,98675.00
2022-08-02T19:12:59.061Z,98672.00
2022-08-02T19:15:47.990Z,98679.00
2022-08-02T19:18:35.711Z,98685.00
2022-08-02T19:21:38.931Z,98687.00
2022-08-02T19:24:30.827Z,98677.00
2022-08-02T19:27:26.007Z,98676.00
2022-08-02T19:30:14.601Z,98676.00
2022-08-02T19:33:08.927Z,98678.00
2022-08-02T19:36:02.106Z,98681.00
2022-08-02T19:38:53.316Z,98686.00
2022-08-02T19:41:43.650Z,98688.00
2022-08-02T19:44:31.732Z,98695.00
2022-08-02T19:47:19.665Z,98693.00
2022-08-02T19:50:12.691Z,98699.00
2022-08-02T19:53:00.151Z,98699.00
2022-08-02T19:56:00.984Z,98701.00
2022-08-02T20:01:58.646Z,98706.00
2022-08-02T20:04:50.458Z,98704.00
2022-08-02T20:07:54.331Z,98699.00
2022-08-02T20:10:45.864Z,98701.00
2022-08-02T20:13:47.196Z,98695.00
2022-08-02T20:16:36.574Z,98688.00
2022-08-02T20:19:29.551Z,98690.00
2022-08-02T20:22:17.823Z,98691.00
2022-08-02T20:25:07.776Z,98683.00
2022-08-02T20:27:55.492Z,98688.00
2022-08-02T20:30:43.664Z,98691.00
2022-08-02T20:33:31.195Z,98688.00
2022-08-02T20:36:18.895Z,98686.00
2022-08-02T20:39:06.785Z,98688.00
2022-08-02T20:41:57.224Z,98686.00
2022-08-02T20:44:47.097Z,98678.00
2022-08-02T20:47:39.106Z,98686.00
2022-08-02T20:50:46.420Z,98684.00
2022-08-02T20:53:36.939Z,98686.00
2022-08-02T20:56:42.800Z,98685.00
2022-08-02T20:59:30.436Z,98682.00
2022-08-02T21:02:18.200Z,98680.00
2022-08-02T21:05:17.178Z,98681.00
2022-08-02T21:08:06.665Z,98689.00
2022-08-02T21:11:01.460Z,98689.00
2022-08-02T21:17:08.413Z,98685.00
2022-08-02T21:19:56.001Z,98685.00
2022-08-02T21:22:45.871Z,98689.00
2022-08-02T21:25:42.366Z,98684.00
2022-08-02T21:28:44.975Z,98682.00
2022-08-02T21:31:36.117Z,98682.00
2022-08-02T21:34:27.034Z,98684.00
2022-08-02T21:37:16.635Z,98690.00
2022-08-02T21:40:08.846Z,98690.00
2022-08-02T21:42:56.971Z,98683.00
2022-08-02T21:45:53.788Z,98686.00
2022-08-02T21:48:43.265Z,98684.00
2022-08-02T21:54:40.842Z,98687.00
2022-08-02T21:57:34.850Z,98691.00
2022-08-02T22:00:28.432Z,98691.00
2022-08-02T22:03:22.452Z,98696.00
2022-08-02T22:06:10.835Z,98691.00
2022-08-02T22:08:58.356Z,98688.00
2022-08-02T22:11:46.240Z,98690.00
2022-08-02T22:14:33.821Z,98695.00
2022-08-02T22:17:51.724Z,98697.00
2022-08-02T22:20:33.521Z,98706.00
2022-08-02T22:23:22.715Z,98698.00
2022-08-02T22:26:26.625Z,98698.00
2022-08-02T22:29:15.040Z,98703.00
2022-08-02T22:32:02.817Z,98709.00
2022-08-02T22:34:51.914Z,98705.00
2022-08-02T22:38:14.897Z,98707.00
2022-08-02T22:40:50.018Z,98711.00
2022-08-02T22:43:37.535Z,98712.00
2022-08-02T22:46:26.394Z,98711.00
2022-08-02T22:49:17.662Z,98711.00
2022-08-02T22:52:21.993Z,98706.00
2022-08-02T22:55:10.820Z,98709.00
2022-08-02T22:58:01.501Z,98708.00
2022-08-02T22:58:38.930Z,98657.00
2022-08-02T22:58:48.752Z,98645.00
2022-08-02T22:58:54.020Z,98705.00
2022-08-02T22:59:11.397Z,98694.00
2022-08-02T23:00:51.000Z,98712.00
2022-08-02T23:03:40.348Z,98710.00
2022-08-02T23:06:27.778Z,98702.00
2022-08-02T23:09:15.231Z,98701.00
2022-08-02T23:12:03.915Z,98704.00
2022-08-02T23:14:52.890Z,98711.00
2022-08-02T23:17:58.930Z,98707.00
2022-08-02T23:20:46.391Z,98705.00
2022-08-02T23:23:34.235Z,98704.00
2022-08-02T23:26:21.675Z,98702.00
2022-08-02T23:29:09.120Z,98699.00
2022-08-02T23:31:56.780Z,98694.00
2022-08-02T23:34:46.665Z,98698.00
2022-08-02T23:37:59.043Z,98699.00
2022-08-02T23:40:41.705Z,98699.00
2022-08-02T23:43:29.314Z,98704.00
2022-08-02T23:46:16.859Z,98706.00
2022-08-02T23:49:04.346Z,98703.00
2022-08-02T23:51:56.098Z,98703.00
2022-08-02T23:54:45.804Z,98702.00
2022-08-02T23:57:33.450Z,98703.00
